createdAt,value
2018-03-22T00:00:54.064Z,4.38
2018-03-22T00:03:21.528Z,4.41
2018-03-22T00:05:48.919Z,4.39
2018-03-22T00:08:16.341Z,4.32
2018-03-22T00:10:43.793Z,4.37
2018-03-22T00:13:11.156Z,4.35
2018-03-22T00:15:38.671Z,4.26
2018-03-22T00:18:06.095Z,4.27
2018-03-22T00:20:33.580Z,4.39
2018-03-22T00:23:00.971Z,4.45
2018-03-22T00:25:28.368Z,4.37
2018-03-22T00:27:55.774Z,4.53
2018-03-22T00:30:23.170Z,4.48
2018-03-22T00:32:50.576Z,4.49
2018-03-22T00:35:18.022Z,4.38
2018-03-22T00:37:45.439Z,4.26
2018-03-22T00:40:12.831Z,4.43
2018-03-22T00:42:40.219Z,4.29
2018-03-22T00:45:07.619Z,4.43
2018-03-22T00:47:35.010Z,4.38
2018-03-22T00:50:05.486Z,4.37
2018-03-22T00:52:32.974Z,4.43
2018-03-22T00:55:00.434Z,4.47
2018-03-22T00:57:27.826Z,4.37
2018-03-22T00:59:55.238Z,4.58
2018-03-22T01:02:22.631Z,4.58
2018-03-22T01:04:51.911Z,4.46
2018-03-22T01:07:19.358Z,4.45
2018-03-22T01:09:46.763Z,4.39
2018-03-22T01:12:14.189Z,4.28
2018-03-22T01:14:41.575Z,4.40
2018-03-22T01:17:09.115Z,4.29
2018-03-22T01:19:36.522Z,4.28
2018-03-22T01:22:03.910Z,4.31
2018-03-22T01:24:31.311Z,4.38
2018-03-22T01:26:58.699Z,4.37
2018-03-22T01:29:26.117Z,4.40
2018-03-22T01:31:53.539Z,4.28
2018-03-22T01:34:20.959Z,4.20
2018-03-22T01:36:48.356Z,4.20
2018-03-22T01:39:15.757Z,4.09
2018-03-22T01:41:43.146Z,4.14
2018-03-22T01:44:10.547Z,4.21
2018-03-22T01:46:37.959Z,4.14
2018-03-22T01:49:05.410Z,4.11
2018-03-22T01:51:32.811Z,3.99
2018-03-22T01:54:00.239Z,3.93
2018-03-22T01:56:27.687Z,4.13
2018-03-22T01:58:55.100Z,4.09
2018-03-22T02:01:22.576Z,4.00
2018-03-22T02:03:49.972Z,3.92
2018-03-22T02:06:17.426Z,3.94
2018-03-22T02:08:44.819Z,4.02
2018-03-22T02:11:12.222Z,3.86
2018-03-22T02:13:39.618Z,3.71
2018-03-22T02:16:07.107Z,3.75
2018-03-22T02:18:34.486Z,3.78
2018-03-22T02:21:01.903Z,3.78
2018-03-22T02:23:29.288Z,3.59
2018-03-22T02:25:56.702Z,3.62
2018-03-22T02:28:24.085Z,3.64
2018-03-22T02:30:51.526Z,3.71
2018-03-22T02:33:18.980Z,3.55
2018-03-22T02:35:46.388Z,3.45
2018-03-22T02:38:13.776Z,3.36
2018-03-22T02:40:41.179Z,3.72
2018-03-22T02:43:08.584Z,3.54
2018-03-22T02:45:35.995Z,3.49
2018-03-22T02:48:03.378Z,3.45
2018-03-22T02:50:30.778Z,3.41
2018-03-22T02:52:58.188Z,3.39
2018-03-22T02:55:25.578Z,3.34
2018-03-22T02:57:52.996Z,3.21
2018-03-22T03:00:20.512Z,3.29
2018-03-22T03:02:47.963Z,3.18
2018-03-22T03:05:15.351Z,2.99
2018-03-22T03:07:42.751Z,3.06
2018-03-22T03:10:10.146Z,3.06
2018-03-22T03:12:37.555Z,3.12
2018-03-22T03:15:05.046Z,3.08
2018-03-22T03:17:32.519Z,3.10
2018-03-22T03:19:59.961Z,3.01
2018-03-22T03:22:27.413Z,3.20
2018-03-22T03:24:54.797Z,3.16
2018-03-22T03:27:22.186Z,3.06
2018-03-22T03:29:49.675Z,3.12
2018-03-22T03:32:17.075Z,3.02
2018-03-22T03:34:44.483Z,3.20
2018-03-22T03:37:11.882Z,3.14
2018-03-22T03:39:39.299Z,3.14
2018-03-22T03:42:06.695Z,3.20
2018-03-22T03:44:34.085Z,3.23
2018-03-22T03:47:01.513Z,3.14
2018-03-22T03:49:28.908Z,3.15
2018-03-22T03:51:56.319Z,2.99
2018-03-22T03:54:23.819Z,2.95
2018-03-22T03:56:51.219Z,2.95
2018-03-22T03:59:18.614Z,2.87
2018-03-22T04:01:46.834Z,2.79
2018-03-22T04:04:14.226Z,2.82
2018-03-22T04:06:41.632Z,2.88
2018-03-22T04:09:09.031Z,2.85
2018-03-22T04:11:36.435Z,2.92
2018-03-22T04:14:03.831Z,2.79
2018-03-22T04:16:31.298Z,2.79
2018-03-22T04:18:58.690Z,2.75
2018-03-22T04:21:26.231Z,2.70
2018-03-22T04:23:53.618Z,2.61
2018-03-22T04:26:21.012Z,2.59
2018-03-22T04:28:48.414Z,2.59
2018-03-22T04:31:15.807Z,2.74
2018-03-22T04:33:43.206Z,2.86
2018-03-22T04:36:10.600Z,2.94
2018-03-22T04:38:37.998Z,2.83
2018-03-22T04:41:05.395Z,2.87
2018-03-22T04:43:32.839Z,2.92
2018-03-22T04:46:00.233Z,2.86
2018-03-22T04:48:27.626Z,2.83
2018-03-22T04:50:55.024Z,2.83
2018-03-22T04:53:22.419Z,2.78
2018-03-22T04:55:49.809Z,2.76
2018-03-22T04:58:17.228Z,2.69
2018-03-22T05:00:44.620Z,2.63
2018-03-22T05:03:12.041Z,2.60
2018-03-22T05:05:39.435Z,2.65
2018-03-22T05:08:06.855Z,2.78
2018-03-22T05:10:34.248Z,2.67
2018-03-22T05:13:01.658Z,2.80
2018-03-22T05:15:29.051Z,2.91
2018-03-22T05:17:56.469Z,3.01
2018-03-22T05:20:23.878Z,2.96
2018-03-22T05:22:51.291Z,2.85
2018-03-22T05:25:18.714Z,2.82
2018-03-22T05:27:46.179Z,2.98
2018-03-22T05:30:13.606Z,2.98
2018-03-22T05:32:41.083Z,3.06
2018-03-22T05:35:08.545Z,2.85
2018-03-22T05:37:36.019Z,2.86
2018-03-22T05:40:03.423Z,2.96
2018-03-22T05:42:30.812Z,3.01
2018-03-22T05:44:58.202Z,2.88
2018-03-22T05:47:25.589Z,2.92
2018-03-22T05:49:52.991Z,3.00
2018-03-22T05:52:20.379Z,2.92
2018-03-22T05:54:47.775Z,2.99
2018-03-22T05:57:15.171Z,3.02
2018-03-22T05:59:42.570Z,3.05
2018-03-22T06:02:09.962Z,3.13
2018-03-22T06:04:37.383Z,3.08
2018-03-22T06:07:04.783Z,3.15
2018-03-22T06:09:32.181Z,3.13
2018-03-22T06:11:59.576Z,3.21
2018-03-22T06:14:26.975Z,3.25
2018-03-22T06:16:54.363Z,3.22
2018-03-22T06:19:21.764Z,3.16
2018-03-22T06:21:49.195Z,3.17
2018-03-22T06:24:16.596Z,3.14
2018-03-22T06:26:43.991Z,3.18
2018-03-22T06:29:11.402Z,3.10
2018-03-22T06:31:38.817Z,3.11
2018-03-22T06:34:06.229Z,3.18
2018-03-22T06:36:33.722Z,3.30
2018-03-22T06:39:01.183Z,3.25
2018-03-22T06:41:28.578Z,3.28
2018-03-22T06:43:55.997Z,3.33
2018-03-22T06:46:23.390Z,3.32
2018-03-22T06:48:50.817Z,3.27
2018-03-22T06:51:18.215Z,3.33
2018-03-22T06:53:45.607Z,3.22
2018-03-22T06:56:13.124Z,3.39
2018-03-22T06:58:40.511Z,3.53
2018-03-22T07:01:07.913Z,3.44
2018-03-22T07:03:35.299Z,3.44
2018-03-22T07:06:02.695Z,3.28
2018-03-22T07:08:30.091Z,3.21
2018-03-22T07:10:57.513Z,3.23
2018-03-22T07:13:24.970Z,3.40
2018-03-22T07:15:52.389Z,3.47
2018-03-22T07:18:19.770Z,3.58
2018-03-22T07:20:48.059Z,3.44
2018-03-22T07:23:15.446Z,3.56
2018-03-22T07:25:42.843Z,3.55
2018-03-22T07:28:10.322Z,3.65
2018-03-22T07:30:37.718Z,3.76
2018-03-22T07:33:05.127Z,3.78
2018-03-22T07:35:32.523Z,3.78
2018-03-22T07:37:59.941Z,3.86
2018-03-22T07:40:27.330Z,3.91
2018-03-22T07:43:00.445Z,3.92
2018-03-22T07:45:27.848Z,3.86
2018-03-22T07:47:55.235Z,3.92
2018-03-22T07:50:22.655Z,4.02
2018-03-22T07:52:50.039Z,3.89
2018-03-22T07:55:17.444Z,3.96
2018-03-22T07:57:44.835Z,4.18
2018-03-22T08:00:12.235Z,4.19
2018-03-22T08:02:39.722Z,4.19
2018-03-22T08:05:07.135Z,4.25
2018-03-22T08:07:34.523Z,4.21
2018-03-22T08:10:01.923Z,4.26
2018-03-22T08:15:03.155Z,4.36
2018-03-22T08:17:30.547Z,4.43
2018-03-22T08:19:57.967Z,4.34
2018-03-22T08:22:25.357Z,4.42
2018-03-22T08:24:52.757Z,4.47
2018-03-22T08:27:20.150Z,4.39
2018-03-22T08:29:47.534Z,4.35
2018-03-22T08:32:14.934Z,4.33
2018-03-22T08:34:42.324Z,4.45
2018-03-22T08:37:09.751Z,4.53
2018-03-22T08:39:37.133Z,4.61
2018-03-22T08:42:04.531Z,4.72
2018-03-22T08:44:31.927Z,4.70
2018-03-22T08:46:59.372Z,4.64
2018-03-22T08:49:26.768Z,4.72
2018-03-22T08:51:54.166Z,4.67
2018-03-22T08:54:21.594Z,4.65
2018-03-22T08:56:49.051Z,4.63
2018-03-22T08:59:16.507Z,4.84
2018-03-22T09:01:43.963Z,4.90
2018-03-22T09:04:11.346Z,4.96
2018-03-22T09:06:38.747Z,4.93
2018-03-22T09:09:06.143Z,5.01
2018-03-22T09:11:33.530Z,5.08
2018-03-22T09:14:00.926Z,5.21
2018-03-22T09:16:28.392Z,5.09
2018-03-22T09:18:55.847Z,5.21
2018-03-22T09:21:23.242Z,5.12
2018-03-22T09:23:50.659Z,5.22
2018-03-22T09:26:18.055Z,5.20
2018-03-22T09:28:45.489Z,5.26
2018-03-22T09:31:12.871Z,5.32
2018-03-22T09:33:40.271Z,5.26
2018-03-22T09:36:07.670Z,5.13
2018-03-22T09:38:35.102Z,5.36
2018-03-22T09:41:02.459Z,5.43
2018-03-22T09:43:29.851Z,5.35
2018-03-22T09:45:57.318Z,5.19
2018-03-22T09:48:24.708Z,5.10
2018-03-22T09:50:52.139Z,5.22
2018-03-22T09:53:19.550Z,5.46
2018-03-22T09:55:46.934Z,5.37
2018-03-22T09:58:14.390Z,5.44
2018-03-22T10:00:41.779Z,5.51
2018-03-22T10:03:09.174Z,5.44
2018-03-22T10:05:36.578Z,5.47
2018-03-22T10:08:03.962Z,5.50
2018-03-22T10:10:31.362Z,5.49
2018-03-22T10:12:58.766Z,5.53
2018-03-22T10:15:26.191Z,5.70
2018-03-22T10:17:53.590Z,5.80
2018-03-22T10:20:21.097Z,5.94
2018-03-22T10:22:48.538Z,6.01
2018-03-22T10:25:15.934Z,6.03
2018-03-22T10:27:43.327Z,6.24
2018-03-22T10:30:10.724Z,6.07
2018-03-22T10:32:38.162Z,5.93
2018-03-22T10:35:05.550Z,6.00
2018-03-22T10:37:32.950Z,6.06
2018-03-22T10:40:00.434Z,6.27
2018-03-22T10:42:27.831Z,6.44
2018-03-22T10:44:55.222Z,6.61
2018-03-22T10:47:22.610Z,6.43
2018-03-22T10:49:50.007Z,6.35
2018-03-22T10:52:17.396Z,6.39
2018-03-22T10:54:44.863Z,6.38
2018-03-22T10:57:12.259Z,6.31
2018-03-22T10:59:39.672Z,6.50
2018-03-22T11:05:06.235Z,6.48
2018-03-22T11:07:33.628Z,6.59
2018-03-22T11:10:01.015Z,6.49
2018-03-22T11:12:28.415Z,6.50
2018-03-22T11:14:55.802Z,6.68
2018-03-22T11:17:23.199Z,6.63
2018-03-22T11:19:50.637Z,6.69
2018-03-22T11:22:17.984Z,6.44
2018-03-22T11:24:45.466Z,6.42
2018-03-22T11:27:12.943Z,6.47
2018-03-22T11:29:40.402Z,6.70
2018-03-22T11:32:07.847Z,6.71
2018-03-22T11:34:35.242Z,6.84
2018-03-22T11:37:02.643Z,7.02
2018-03-22T11:39:30.035Z,6.94
2018-03-22T11:41:57.514Z,6.77
2018-03-22T11:44:25.198Z,7.01
2018-03-22T11:46:52.519Z,7.07
2018-03-22T11:49:19.915Z,7.19
2018-03-22T11:51:47.311Z,7.24
2018-03-22T11:54:14.795Z,7.50
2018-03-22T11:56:42.190Z,7.49
2018-03-22T11:59:09.616Z,7.61
2018-03-22T12:01:36.978Z,7.64
2018-03-22T12:04:04.414Z,7.65
2018-03-22T12:06:31.811Z,7.58
2018-03-22T12:08:59.211Z,7.68
2018-03-22T12:11:26.600Z,7.80
2018-03-22T12:13:54.034Z,7.78
2018-03-22T12:16:21.492Z,7.65
2018-03-22T12:18:48.886Z,7.59
2018-03-22T12:21:16.271Z,7.49
2018-03-22T12:23:43.763Z,7.32
2018-03-22T12:26:11.172Z,7.38
2018-03-22T12:28:38.567Z,7.37
2018-03-22T12:31:05.971Z,7.34
2018-03-22T12:33:33.363Z,7.38
2018-03-22T12:36:00.778Z,7.54
2018-03-22T12:38:28.170Z,7.53
2018-03-22T12:40:55.565Z,7.39
2018-03-22T12:43:23.039Z,7.25
2018-03-22T12:45:50.343Z,7.34
2018-03-22T12:48:17.741Z,7.53
2018-03-22T12:50:45.133Z,7.69
2018-03-22T12:53:12.624Z,7.78
2018-03-22T12:55:40.010Z,7.80
2018-03-22T12:58:07.430Z,7.78
2018-03-22T13:00:34.890Z,7.60
2018-03-22T13:03:02.351Z,7.71
2018-03-22T13:05:29.802Z,7.74
2018-03-22T13:07:57.254Z,7.56
2018-03-22T13:10:24.649Z,7.46
2018-03-22T13:12:52.034Z,7.51
2018-03-22T13:15:19.423Z,7.48
2018-03-22T13:17:46.878Z,7.55
2018-03-22T13:20:14.259Z,7.61
2018-03-22T13:22:41.652Z,7.67
2018-03-22T13:25:09.144Z,7.78
2018-03-22T13:27:36.535Z,7.77
2018-03-22T13:30:03.946Z,7.84
2018-03-22T13:32:31.329Z,7.79
2018-03-22T13:34:58.728Z,7.90
2018-03-22T13:37:26.111Z,7.83
2018-03-22T13:39:53.494Z,7.94
2018-03-22T13:42:20.951Z,7.96
2018-03-22T13:44:48.342Z,8.10
2018-03-22T13:47:15.727Z,8.22
2018-03-22T13:49:43.113Z,8.23
2018-03-22T13:52:10.498Z,8.28
2018-03-22T13:54:37.925Z,8.29
2018-03-22T13:57:05.295Z,8.39
2018-03-22T13:59:32.721Z,8.62
2018-03-22T14:02:00.174Z,8.86
2018-03-22T14:04:27.563Z,8.94
2018-03-22T14:06:54.986Z,8.77
2018-03-22T14:09:22.390Z,8.83
2018-03-22T14:11:49.769Z,8.96
2018-03-22T14:14:17.155Z,8.78
2018-03-22T14:16:44.543Z,8.68
2018-03-22T14:19:11.931Z,8.42
2018-03-22T14:21:39.315Z,8.44
2018-03-22T14:24:06.707Z,8.44
2018-03-22T14:26:34.090Z,8.41
2018-03-22T14:29:01.482Z,8.67
2018-03-22T14:31:28.863Z,8.65
2018-03-22T14:33:56.271Z,8.85
2018-03-22T14:36:23.650Z,8.75
2018-03-22T14:38:51.049Z,8.58
2018-03-22T14:41:18.473Z,8.64
2018-03-22T14:43:45.896Z,8.57
2018-03-22T14:46:13.249Z,8.33
2018-03-22T14:48:40.722Z,8.12
2018-03-22T14:51:08.105Z,8.21
2018-03-22T14:53:35.536Z,8.28
2018-03-22T14:56:02.998Z,8.16
2018-03-22T14:58:30.379Z,8.14
2018-03-22T15:00:57.813Z,8.07
2018-03-22T15:03:25.194Z,8.20
2018-03-22T15:05:52.578Z,8.27
2018-03-22T15:08:19.975Z,8.33
2018-03-22T15:10:47.435Z,8.32
2018-03-22T15:13:14.843Z,8.40
2018-03-22T15:15:42.238Z,8.69
2018-03-22T15:18:09.690Z,8.78
2018-03-22T15:20:37.085Z,8.99
2018-03-22T15:23:04.466Z,8.74
2018-03-22T15:25:31.896Z,8.56
2018-03-22T15:27:59.241Z,8.77
2018-03-22T15:30:26.673Z,8.64
2018-03-22T15:32:54.115Z,8.56
2018-03-22T15:35:21.496Z,8.59
2018-03-22T15:37:48.892Z,8.49
2018-03-22T15:40:16.274Z,8.54
2018-03-22T15:42:43.704Z,8.59
2018-03-22T15:45:11.155Z,8.52
2018-03-22T15:47:38.544Z,8.50
2018-03-22T15:50:05.986Z,8.41
2018-03-22T15:52:33.428Z,8.32
2018-03-22T15:55:00.882Z,8.23
2018-03-22T15:57:28.340Z,8.19
2018-03-22T15:59:55.794Z,7.84
2018-03-22T16:02:23.258Z,7.82
2018-03-22T16:04:50.643Z,7.94
2018-03-22T16:07:18.058Z,7.65
2018-03-22T16:09:45.522Z,7.71
2018-03-22T16:12:12.911Z,7.86
2018-03-22T16:14:40.328Z,8.03
2018-03-22T16:17:07.706Z,8.00
2018-03-22T16:19:35.107Z,7.92
2018-03-22T16:22:02.497Z,7.74
2018-03-22T16:24:29.886Z,7.68
2018-03-22T16:26:57.274Z,7.71
2018-03-22T16:29:24.663Z,7.88
2018-03-22T16:31:52.042Z,7.98
2018-03-22T16:34:19.471Z,8.01
2018-03-22T16:36:46.897Z,8.11
2018-03-22T16:39:14.254Z,8.00
2018-03-22T16:41:41.643Z,7.86
2018-03-22T16:44:09.032Z,7.84
2018-03-22T16:46:36.435Z,7.81
2018-03-22T16:49:03.815Z,7.89
2018-03-22T16:51:31.198Z,7.57
2018-03-22T16:53:58.591Z,7.32
2018-03-22T16:56:26.083Z,7.37
2018-03-22T16:58:53.470Z,7.44
2018-03-22T17:01:20.854Z,7.41
2018-03-22T17:03:48.262Z,7.21
2018-03-22T17:06:15.649Z,7.24
2018-03-22T17:08:43.138Z,7.40
2018-03-22T17:11:10.513Z,7.19
2018-03-22T17:13:37.931Z,7.16
2018-03-22T17:16:05.286Z,7.10
2018-03-22T17:18:32.676Z,7.18
2018-03-22T17:21:00.119Z,7.23
2018-03-22T17:23:27.515Z,7.32
2018-03-22T17:25:54.930Z,7.19
2018-03-22T17:28:22.327Z,7.24
2018-03-22T17:30:49.734Z,7.06
2018-03-22T17:33:17.217Z,6.90
2018-03-22T17:35:44.590Z,6.71
2018-03-22T17:38:12.010Z,6.63
2018-03-22T17:40:39.403Z,6.71
2018-03-22T17:43:06.782Z,6.60
2018-03-22T17:45:34.170Z,6.47
2018-03-22T17:48:01.556Z,6.43
2018-03-22T17:50:28.959Z,6.43
2018-03-22T17:52:56.347Z,6.32
2018-03-22T17:55:23.757Z,6.35
2018-03-22T17:57:51.122Z,6.36
2018-03-22T18:00:18.549Z,6.27
2018-03-22T18:02:45.958Z,6.16
2018-03-22T18:05:13.338Z,6.20
2018-03-22T18:07:40.815Z,6.33
2018-03-22T18:10:08.297Z,6.42
2018-03-22T18:12:35.687Z,6.35
2018-03-22T18:15:03.080Z,6.13
2018-03-22T18:17:30.552Z,6.25
2018-03-22T18:19:58.051Z,6.13
2018-03-22T18:22:25.443Z,6.10
2018-03-22T18:24:52.826Z,5.93
2018-03-22T18:27:20.218Z,6.07
2018-03-22T18:29:47.655Z,6.02
2018-03-22T18:32:15.012Z,6.09
2018-03-22T18:34:42.459Z,6.02
2018-03-22T18:37:09.794Z,6.04
2018-03-22T18:39:37.255Z,6.07
2018-03-22T18:42:04.634Z,6.21
2018-03-22T18:44:32.031Z,6.36
2018-03-22T18:46:59.415Z,6.39
2018-03-22T18:49:26.804Z,6.13
2018-03-22T18:51:54.193Z,6.09
2018-03-22T18:54:21.583Z,5.82
2018-03-22T18:56:48.969Z,5.78
2018-03-22T18:59:16.358Z,5.87
2018-03-22T19:01:43.882Z,5.83
2018-03-22T19:04:11.413Z,5.83
2018-03-22T19:06:38.924Z,5.99
2018-03-22T19:09:06.540Z,6.16
2018-03-22T19:11:34.016Z,6.23
2018-03-22T19:14:01.619Z,6.26
2018-03-22T19:16:29.165Z,6.35
2018-03-22T19:18:56.750Z,6.46
2018-03-22T19:21:24.395Z,6.39
2018-03-22T19:23:51.924Z,6.50
2018-03-22T19:26:19.354Z,6.72
2018-03-22T19:28:46.735Z,6.59
2018-03-22T19:31:14.131Z,6.47
2018-03-22T19:33:41.514Z,6.49
2018-03-22T19:36:08.978Z,6.61
2018-03-22T19:38:36.447Z,6.70
2018-03-22T19:41:03.835Z,6.63
2018-03-22T19:43:32.015Z,6.58
2018-03-22T19:45:59.406Z,6.23
2018-03-22T19:48:26.802Z,6.23
2018-03-22T19:50:54.194Z,6.11
2018-03-22T19:53:21.588Z,6.12
2018-03-22T19:55:48.975Z,6.27
2018-03-22T19:58:16.386Z,6.14
2018-03-22T20:00:43.847Z,5.87
2018-03-22T20:03:11.222Z,5.94
2018-03-22T20:05:38.664Z,6.04
2018-03-22T20:08:05.991Z,6.07
2018-03-22T20:10:33.382Z,6.03
2018-03-22T20:13:00.770Z,6.05
2018-03-22T20:15:28.196Z,6.01
2018-03-22T20:17:55.574Z,5.94
2018-03-22T20:20:22.969Z,6.11
2018-03-22T20:22:50.352Z,5.93
2018-03-22T20:25:17.796Z,5.93
2018-03-22T20:27:45.250Z,5.85
2018-03-22T20:30:12.697Z,5.88
2018-03-22T20:32:40.165Z,5.92
2018-03-22T20:35:07.567Z,6.10
2018-03-22T20:37:34.947Z,5.71
2018-03-22T20:40:02.335Z,5.68
2018-03-22T20:42:29.788Z,5.79
2018-03-22T20:44:57.182Z,5.79
2018-03-22T20:47:24.595Z,5.72
2018-03-22T20:49:52.010Z,5.71
2018-03-22T20:52:19.402Z,5.57
2018-03-22T20:54:46.790Z,5.67
2018-03-22T20:57:14.173Z,5.68
2018-03-22T20:59:41.562Z,5.40
2018-03-22T21:02:08.942Z,5.27
2018-03-22T21:04:36.332Z,4.99
2018-03-22T21:07:03.711Z,5.14
2018-03-22T21:09:31.126Z,5.19
2018-03-22T21:11:58.514Z,5.14
2018-03-22T21:14:25.894Z,5.35
2018-03-22T21:16:53.287Z,5.15
2018-03-22T21:19:20.683Z,5.02
2018-03-22T21:21:48.071Z,4.90
2018-03-22T21:24:15.462Z,5.06
2018-03-22T21:26:42.860Z,5.16
2018-03-22T21:29:10.246Z,5.21
2018-03-22T21:31:37.644Z,5.17
2018-03-22T21:34:05.025Z,5.25
2018-03-22T21:36:32.444Z,5.24
2018-03-22T21:38:59.901Z,5.41
2018-03-22T21:41:27.236Z,5.27
2018-03-22T21:44:06.526Z,5.32
2018-03-22T21:46:33.939Z,5.30
2018-03-22T21:49:01.339Z,5.31
2018-03-22T21:51:28.742Z,5.37
2018-03-22T21:53:56.211Z,5.50
2018-03-22T21:56:23.594Z,5.70
2018-03-22T21:58:50.980Z,5.58
2018-03-22T22:01:18.380Z,5.47
2018-03-22T22:03:45.760Z,5.59
2018-03-22T22:06:13.165Z,5.68
2018-03-22T22:08:40.554Z,5.41
2018-03-22T22:11:07.965Z,5.31
2018-03-22T22:13:35.455Z,5.31
2018-03-22T22:16:02.839Z,5.06
2018-03-22T22:18:30.225Z,4.96
2018-03-22T22:20:57.718Z,4.52
2018-03-22T22:23:25.195Z,4.44
2018-03-22T22:25:52.607Z,4.23
2018-03-22T22:28:20.001Z,4.14
2018-03-22T22:30:47.390Z,4.10
2018-03-22T22:33:14.788Z,4.13
2018-03-22T22:35:42.177Z,4.27
2018-03-22T22:38:09.573Z,4.41
2018-03-22T22:40:36.969Z,4.67
2018-03-22T22:43:04.375Z,4.79
2018-03-22T22:45:31.878Z,4.86
2018-03-22T22:47:59.267Z,4.95
2018-03-22T22:50:26.671Z,5.09
2018-03-22T22:52:54.138Z,5.03
2018-03-22T22:55:21.534Z,4.98
2018-03-22T22:57:48.920Z,4.94
2018-03-22T23:00:16.314Z,4.79
2018-03-22T23:02:43.691Z,4.56
2018-03-22T23:05:11.105Z,4.41
2018-03-22T23:07:38.486Z,4.29
2018-03-22T23:10:05.873Z,4.30
2018-03-22T23:12:33.259Z,4.30
2018-03-22T23:15:00.638Z,4.41
2018-03-22T23:17:28.031Z,4.62
2018-03-22T23:19:55.422Z,4.81
2018-03-22T23:22:22.830Z,4.96
2018-03-22T23:24:50.991Z,4.99
2018-03-22T23:27:18.395Z,5.13
2018-03-22T23:29:45.771Z,5.20
2018-03-22T23:32:13.167Z,4.85
2018-03-22T23:34:40.586Z,4.96
2018-03-22T23:37:07.979Z,5.05
2018-03-22T23:39:35.358Z,5.12
2018-03-22T23:42:02.751Z,5.05
2018-03-22T23:44:30.131Z,5.00
2018-03-22T23:46:57.526Z,5.23
2018-03-22T23:49:25.570Z,5.40
2018-03-22T23:51:52.998Z,5.34
2018-03-22T23:54:20.371Z,5.30
2018-03-22T23:56:47.761Z,5.30
2018-03-22T23:59:15.233Z,5.34
